Time;durP1;ratioP1;P1;durP2;ratioP2;P2;SDS_P1;SDS_P2;PMS_P1;PMS_P2;Temp;Humidity;BMP_temperature;BMP_pressure;BME280_temperature;BME280_humidity;BME280_pressure;Samples;Min_cycle;Max_cycle;Signal;HPM_P1;HPM_P2
2023/10/10 00:02:28;;;;;;;30.50;21.67;;;;;;;13.34;100.00;101922.28;5050627;28;20029;-75
2023/10/10 00:04:59;;;;;;;38.37;21.03;;;;;;;13.35;100.00;101915.94;5061312;28;20409;-75
2023/10/10 00:07:27;;;;;;;32.03;19.92;;;;;;;13.34;100.00;101925.88;5054812;28;20033;-76
2023/10/10 00:09:52;;;;;;;33.05;22.40;;;;;;;13.36;100.00;101923.94;5054482;28;20124;-75
2023/10/10 00:12:26;;;;;;;33.28;21.67;;;;;;;13.36;100.00;101923.09;5052383;28;20039;-75
2023/10/10 00:14:57;;;;;;;32.15;22.58;;;;;;;13.33;100.00;101931.34;5039357;28;20045;-75
2023/10/10 00:17:22;;;;;;;34.92;21.40;;;;;;;13.34;100.00;101924.97;5061135;28;20028;-75
2023/10/10 00:20:15;;;;;;;35.05;21.42;;;;;;;13.33;100.00;101929.50;5058306;28;20078;-75
2023/10/10 00:22:39;;;;;;;32.78;22.83;;;;;;;13.31;100.00;101927.88;5039785;28;20097;-75
2023/10/10 00:25:12;;;;;;;31.67;23.63;;;;;;;13.31;100.00;101926.06;5048105;28;20039;-75
2023/10/10 00:27:39;;;;;;;36.97;24.00;;;;;;;13.31;100.00;101919.78;5057147;28;20025;-76
2023/10/10 00:30:06;;;;;;;35.35;24.10;;;;;;;13.29;100.00;101922.59;5053876;28;20054;-75
2023/10/10 00:32:35;;;;;;;39.65;24.73;;;;;;;13.28;100.00;101927.13;5058763;28;20048;-76
2023/10/10 00:35:05;;;;;;;34.77;23.50;;;;;;;13.30;100.00;101924.31;5057554;28;20116;-76
2023/10/10 00:37:34;;;;;;;31.63;22.42;;;;;;;13.29;100.00;101920.78;5039552;28;20296;-75
2023/10/10 00:40:08;;;;;;;32.60;23.08;;;;;;;13.29;100.00;101923.47;5054391;28;20040;-75
2023/10/10 00:42:37;;;;;;;33.08;23.20;;;;;;;13.30;100.00;101916.22;5053326;28;20086;-76
2023/10/10 00:45:09;;;;;;;31.33;21.35;;;;;;;13.28;100.00;101916.34;5047803;28;20404;-75
2023/10/10 00:47:40;;;;;;;35.63;24.30;;;;;;;13.27;100.00;101911.91;5008365;28;1085624;-75
2023/10/10 00:50:09;;;;;;;33.35;22.65;;;;;;;13.27;100.00;101911.91;5063937;28;20365;-75
2023/10/10 00:52:38;;;;;;;35.38;25.00;;;;;;;13.29;100.00;101915.38;5058934;28;20119;-75
2023/10/10 00:55:04;;;;;;;33.88;23.52;;;;;;;13.28;100.00;101910.94;5048374;28;20116;-75
2023/10/10 00:57:35;;;;;;;34.45;22.67;;;;;;;13.28;100.00;101912.78;5043616;28;20472;-75
2023/10/10 01:00:07;;;;;;;33.50;23.35;;;;;;;13.25;100.00;101903.03;5051945;28;20079;-75
2023/10/10 01:02:34;;;;;;;37.55;24.48;;;;;;;13.23;100.00;101910.38;5052208;28;20103;-73
2023/10/10 01:05:05;;;;;;;34.78;23.98;;;;;;;13.23;100.00;101898.72;5053551;28;20024;-73
2023/10/10 01:07:34;;;;;;;33.35;23.90;;;;;;;13.22;100.00;101896.97;5049925;28;20017;-73
2023/10/10 01:10:11;;;;;;;34.10;23.20;;;;;;;13.22;100.00;101888.88;5042792;28;20066;-72
2023/10/10 01:12:39;;;;;;;34.17;24.25;;;;;;;13.20;100.00;101886.28;5056710;28;20040;-72
2023/10/10 01:15:34;;;;;;;35.13;25.02;;;;;;;13.21;100.00;101890.72;5045213;28;20081;-73
2023/10/10 01:17:54;;;;;;;31.98;23.08;;;;;;;13.20;100.00;101890.81;5040606;28;20557;-72
2023/10/10 01:20:34;;;;;;;35.17;25.05;;;;;;;13.20;100.00;101886.28;5036115;28;20048;-73
2023/10/10 01:23:00;;;;;;;35.30;24.70;;;;;;;13.19;100.00;101875.59;5043458;28;20025;-72
2023/10/10 01:28:02;;;;;;;32.92;24.55;;;;;;;13.20;100.00;101870.09;5048099;28;20574;-72
2023/10/10 01:33:14;;;;;;;40.10;26.60;;;;;;;13.20;100.00;101867.38;5053324;28;20120;-73
2023/10/10 01:35:41;;;;;;;35.70;25.65;;;;;;;13.21;100.00;101868.28;5057961;28;20403;-72
2023/10/10 01:38:32;;;;;;;35.47;25.50;;;;;;;13.18;100.00;101869.34;5054284;28;20342;-72
2023/10/10 01:40:58;;;;;;;34.25;23.67;;;;;;;13.16;100.00;101860.47;5043679;28;20079;-72
2023/10/10 01:43:24;;;;;;;34.28;24.00;;;;;;;13.14;100.00;101857.00;5049473;28;20035;-72
2023/10/10 01:46:08;;;;;;;33.22;24.60;;;;;;;13.11;100.00;101858.06;5053455;28;20037;-72
2023/10/10 01:48:37;;;;;;;34.40;24.63;;;;;;;13.12;100.00;101856.25;5048275;28;20420;-73
2023/10/10 01:51:06;;;;;;;34.58;23.90;;;;;;;13.10;100.00;101858.19;5054756;28;20029;-72
2023/10/10 01:53:35;;;;;;;38.83;24.13;;;;;;;13.06;100.00;101853.97;5051097;28;20032;-72
2023/10/10 01:56:06;;;;;;;38.00;25.20;;;;;;;13.07;100.00;101850.31;5053765;28;20036;-73
2023/10/10 01:58:36;;;;;;;37.17;25.92;;;;;;;13.08;100.00;101843.94;5053421;28;20020;-72
2023/10/10 02:01:10;;;;;;;;;;;;;;;13.14;100.00;101838.13;5048987;28;20067;-72
2023/10/10 02:03:36;;;;;;;36.50;24.85;;;;;;;13.06;100.00;101843.16;5037621;28;19924;-73
2023/10/10 02:06:01;;;;;;;34.35;24.50;;;;;;;13.04;100.00;101839.72;5052253;28;20056;-72
2023/10/10 02:08:26;;;;;;;35.88;23.08;;;;;;;13.01;100.00;101832.69;5048235;28;20468;-72
2023/10/10 02:10:54;;;;;;;34.08;24.48;;;;;;;12.99;100.00;101837.34;5052870;28;20352;-73
2023/10/10 02:13:20;;;;;;;35.50;23.90;;;;;;;12.98;100.00;101837.44;5044070;28;20111;-72
2023/10/10 02:15:45;;;;;;;38.72;26.63;;;;;;;12.97;100.00;101836.56;5041738;28;20477;-72
2023/10/10 02:18:14;;;;;;;36.63;24.40;;;;;;;12.96;100.00;101824.06;5045735;28;20028;-72
2023/10/10 02:23:24;;;;;;;36.50;24.67;;;;;;;12.94;100.00;101820.56;5048034;28;20552;-72
2023/10/10 02:25:53;;;;;;;36.60;26.15;;;;;;;12.91;100.00;101818.97;5034344;28;20033;-73
2023/10/10 02:30:47;;;;;;;36.65;24.58;;;;;;;12.92;100.00;101817.13;5051179;28;20036;-72
2023/10/10 02:35:54;;;;;;;35.13;24.67;;;;;;;12.88;100.00;101804.81;5058158;28;20048;-73
2023/10/10 02:38:40;;;;;;;38.25;25.58;;;;;;;12.88;100.00;101802.97;5056219;28;20666;-72
2023/10/10 02:44:09;;;;;;;37.03;24.15;;;;;;;12.87;100.00;101801.25;5059046;28;20041;-73
2023/10/10 02:46:40;;;;;;;35.30;26.02;;;;;;;12.86;100.00;101806.75;5045849;28;20044;-73
2023/10/10 02:49:46;;;;;;;36.92;24.15;;;;;;;12.86;100.00;101802.22;5044546;28;20412;-72
2023/10/10 02:52:06;;;;;;;36.42;23.95;;;;;;;12.85;100.00;101808.56;5051313;28;20033;-73
2023/10/10 02:54:43;;;;;;;36.15;25.70;;;;;;;12.84;100.00;101806.88;5057894;28;20021;-73
2023/10/10 02:57:27;;;;;;;35.15;25.90;;;;;;;12.85;100.00;101810.41;5053191;28;20029;-72
2023/10/10 03:00:15;;;;;;;35.70;25.05;;;;;;;12.82;100.00;101808.78;5054538;28;20049;-72
2023/10/10 03:02:49;;;;;;;41.90;26.55;;;;;;;12.81;100.00;101803.50;5048018;28;20077;-72
2023/10/10 03:05:16;;;;;;;37.42;26.73;;;;;;;12.79;100.00;101806.28;5059419;28;20029;-73
2023/10/10 03:07:42;;;;;;;37.72;27.10;;;;;;;12.78;100.00;101807.25;5051763;28;20392;-72
2023/10/10 03:12:43;;;;;;;37.47;26.73;;;;;;;12.79;100.00;101805.44;5051578;28;20036;-73
2023/10/10 03:15:14;;;;;;;37.63;29.20;;;;;;;12.80;100.00;101801.75;5053242;28;20032;-72
2023/10/10 03:18:04;;;;;;;39.67;25.67;;;;;;;12.78;100.00;101804.56;5052127;28;20078;-73
2023/10/10 03:31:22;;;;;;;40.40;29.33;;;;;;;12.83;100.00;101806.97;5053025;28;20044;-72
2023/10/10 03:34:04;;;;;;;39.97;29.45;;;;;;;12.87;100.00;101808.47;5036793;28;20021;-72
2023/10/10 03:36:43;;;;;;;40.45;27.88;;;;;;;12.86;100.00;101817.56;5048447;28;20035;-72
2023/10/10 05:25:51;;;;;;;37.30;26.80;;;;;;;12.66;100.00;101756.84;5055793;28;20121;-75
2023/10/10 05:28:20;;;;;;;36.38;25.17;;;;;;;12.64;100.00;101748.00;5061260;28;20020;-75
2023/10/10 05:30:46;;;;;;;34.83;24.50;;;;;;;12.61;100.00;101748.19;5051462;28;20546;-75
2023/10/10 05:33:13;;;;;;;37.25;25.63;;;;;;;12.62;100.00;101749.94;5038783;28;20108;-74
2023/10/10 05:35:40;;;;;;;37.10;25.17;;;;;;;12.59;100.00;101741.09;5047203;28;20044;-74
2023/10/10 05:38:09;;;;;;;40.17;24.30;;;;;;;12.59;100.00;101741.09;5057451;28;20384;-74
2023/10/10 05:40:40;;;;;;;35.63;26.17;;;;;;;12.61;100.00;101737.41;5055363;28;20539;-75
2023/10/10 05:43:26;;;;;;;36.20;24.48;;;;;;;12.61;100.00;101734.69;5048010;28;20024;-74
2023/10/10 05:45:51;;;;;;;35.22;23.48;;;;;;;12.59;100.00;101740.19;5047732;28;20086;-74
2023/10/10 05:48:16;;;;;;;33.03;22.05;;;;;;;12.61;100.00;101748.19;5046395;28;20622;-74
2023/10/10 05:50:42;;;;;;;35.92;23.65;;;;;;;12.61;100.00;101742.78;5059276;28;20028;-75
2023/10/10 05:53:08;;;;;;;32.35;21.85;;;;;;;12.61;100.00;101748.19;5056386;28;20024;-74
2023/10/10 05:55:34;;;;;;;35.33;23.42;;;;;;;12.61;100.00;101745.50;5039478;28;20508;-74
2023/10/10 05:58:02;;;;;;;32.90;21.55;;;;;;;12.58;100.00;101742.06;5053486;28;20025;-74
2023/10/10 06:00:37;;;;;;;34.65;22.45;;;;;;;12.58;100.00;101743.88;5038676;28;20017;-74
2023/10/10 06:03:06;;;;;;;33.60;22.33;;;;;;;12.57;100.00;101740.31;5049774;28;20490;-74
2023/10/10 06:05:34;;;;;;;35.08;22.75;;;;;;;12.56;100.00;101738.59;5043414;28;20033;-75
2023/10/10 06:08:01;;;;;;;34.25;22.45;;;;;;;12.58;100.00;101733.97;5036810;28;20030;-74
2023/10/10 06:10:34;;;;;;;33.10;22.30;;;;;;;12.61;100.00;101740.09;5037974;28;20040;-74
2023/10/10 06:13:03;;;;;;;33.08;20.60;;;;;;;12.59;100.00;101730.31;5037670;28;20508;-75
2023/10/10 06:15:33;;;;;;;33.72;21.23;;;;;;;12.64;100.00;101732.69;5037767;28;20395;-74
2023/10/10 06:18:08;;;;;;;35.55;20.15;;;;;;;12.66;100.00;101729.88;5041862;28;20081;-74
2023/10/10 06:20:40;;;;;;;33.97;21.40;;;;;;;12.68;100.00;101736.03;5039280;28;20446;-74
2023/10/10 11:48:26;;;;;;;23.55;10.55;;;;;;;17.52;100.00;101639.44;5082568;27;20364;-73
2023/10/10 11:50:56;;;;;;;22.55;10.38;;;;;;;17.51;100.00;101640.44;5065238;28;20501;-72
2023/10/10 11:53:27;;;;;;;26.30;11.02;;;;;;;17.58;99.69;101633.44;5065136;28;20428;-73
2023/10/10 11:56:02;;;;;;;23.17;11.07;;;;;;;17.63;100.00;101633.91;5045026;28;20580;-72
2023/10/10 11:58:36;;;;;;;25.33;9.98;;;;;;;17.68;97.29;101631.59;5065877;28;20686;-72
2023/10/10 12:01:09;;;;;;;22.85;10.00;;;;;;;17.72;96.54;101635.78;5067596;28;20116;-72
2023/10/10 12:09:02;;;;;;;23.08;9.65;;;;;;;17.95;96.75;101630.09;5063051;28;20051;-72
2023/10/10 12:11:32;;;;;;;24.13;11.10;;;;;;;17.97;93.74;101628.13;5047188;28;20493;-72
2023/10/10 12:13:58;;;;;;;26.10;9.73;;;;;;;18.04;93.58;101625.66;5067249;28;20032;-72
2023/10/10 12:16:23;;;;;;;26.40;9.15;;;;;;;18.06;92.84;101627.25;5049705;28;20031;-72
2023/10/10 12:18:52;;;;;;;23.77;10.50;;;;;;;18.14;92.29;101630.13;5048403;28;20051;-72
2023/10/10 12:21:20;;;;;;;23.90;9.18;;;;;;;18.13;93.23;101620.22;5049215;28;20039;-71
2023/10/10 12:23:54;;;;;;;24.10;9.52;;;;;;;18.18;92.77;101625.25;5065151;28;20098;-72
2023/10/10 12:26:21;;;;;;;20.10;8.45;;;;;;;18.17;91.71;101616.22;5048375;28;20446;-72
2023/10/10 12:28:48;;;;;;;20.85;8.95;;;;;;;18.25;90.19;101618.22;5065779;28;20167;-72
2023/10/10 12:31:16;;;;;;;21.25;8.77;;;;;;;18.29;90.00;101607.94;5048567;28;20036;-72
2023/10/10 12:33:45;;;;;;;21.65;8.70;;;;;;;18.30;89.20;101606.91;5043629;28;20021;-72
2023/10/10 12:36:11;;;;;;;22.38;10.00;;;;;;;18.35;90.63;101601.91;5066971;28;20037;-72
2023/10/10 12:38:38;;;;;;;22.55;8.13;;;;;;;18.40;84.68;101607.75;5066742;28;20025;-72
2023/10/10 12:41:05;;;;;;;21.13;8.05;;;;;;;18.44;85.83;101609.19;5064961;28;20032;-72
2023/10/10 12:43:30;;;;;;;19.92;7.50;;;;;;;18.45;85.41;101602.75;5046940;28;20035;-72
2023/10/10 12:45:55;;;;;;;22.20;7.28;;;;;;;18.54;83.04;101606.44;5040956;28;20489;-72
2023/10/10 12:48:21;;;;;;;21.42;7.25;;;;;;;18.52;85.88;101592.09;5050279;28;20517;-72
2023/10/10 12:50:50;;;;;;;22.50;7.32;;;;;;;18.55;80.46;101597.28;5041774;28;20025;-72
2023/10/10 12:53:19;;;;;;;22.95;7.72;;;;;;;18.59;81.05;101598.69;5023484;28;20029;-72
2023/10/10 12:55:48;;;;;;;20.85;6.95;;;;;;;18.62;80.97;101589.38;5025570;28;20397;-72
2023/10/10 12:58:20;;;;;;;22.52;7.15;;;;;;;18.67;82.77;101589.81;5047334;28;20024;-72
2023/10/10 13:00:50;;;;;;;18.23;6.32;;;;;;;18.66;83.76;101586.19;5042907;28;20021;-72
2023/10/10 13:03:32;;;;;;;17.83;6.00;;;;;;;18.75;84.72;101591.78;5051129;28;20116;-70
2023/10/10 13:05:59;;;;;;;19.10;6.38;;;;;;;18.80;82.50;101587.59;5024293;28;20027;-71
2023/10/10 13:08:38;;;;;;;17.70;6.03;;;;;;;18.84;85.63;101574.53;5052924;28;20029;-72
2023/10/10 13:11:15;;;;;;;27.65;6.82;;;;;;;18.85;86.16;101585.28;5036390;28;20112;-71
2023/10/10 13:14:32;;;;;;;19.00;6.75;;;;;;;18.89;81.43;101585.91;5052946;28;20017;-71
2023/10/10 13:16:52;;;;;;;21.38;6.15;;;;;;;18.92;84.32;101582.00;5036541;28;20091;-71
2023/10/10 13:19:20;;;;;;;19.80;7.15;;;;;;;18.99;81.19;101580.38;5045482;28;20380;-72
2023/10/10 13:21:52;;;;;;;18.27;6.47;;;;;;;19.00;80.38;101588.41;5053085;28;20024;-71
2023/10/10 13:24:18;;;;;;;19.63;6.28;;;;;;;19.01;80.66;101583.84;5056459;28;20036;-72
2023/10/10 13:26:49;;;;;;;20.83;6.72;;;;;;;19.11;79.22;101590.09;5068095;28;20074;-73
2023/10/10 13:29:16;;;;;;;18.90;6.97;;;;;;;19.13;78.58;101588.06;5056726;28;20036;-73
2023/10/10 13:31:41;;;;;;;18.95;6.53;;;;;;;19.11;80.18;101584.66;5059640;28;20021;-72
2023/10/10 13:34:06;;;;;;;21.92;6.82;;;;;;;19.17;79.66;101585.91;5039569;28;20714;-72
2023/10/10 13:36:35;;;;;;;19.75;7.05;;;;;;;19.18;78.00;101585.75;5051081;28;20091;-72
2023/10/10 13:39:05;;;;;;;19.20;6.28;;;;;;;19.18;81.00;101584.88;5060395;28;20027;-71
2023/10/10 13:41:35;;;;;;;19.63;6.32;;;;;;;19.18;79.01;101583.03;5056377;28;20028;-72
2023/10/10 13:44:02;;;;;;;23.17;6.72;;;;;;;19.23;82.13;101576.28;5060508;28;20444;-73
2023/10/10 13:46:28;;;;;;;18.42;5.60;;;;;;;19.19;82.71;101581.16;5045476;28;20077;-73
2023/10/10 13:48:53;;;;;;;18.67;6.10;;;;;;;19.15;83.00;101575.16;5041140;28;20032;-73
2023/10/10 13:51:19;;;;;;;16.30;5.13;;;;;;;19.15;83.53;101568.84;5057108;28;20033;-73
2023/10/10 13:53:45;;;;;;;19.52;6.82;;;;;;;19.19;81.12;101573.84;5057713;28;20501;-72
2023/10/10 13:56:13;;;;;;;18.75;6.07;;;;;;;19.16;84.36;101571.41;5032914;28;20289;-72
2023/10/10 13:58:46;;;;;;;18.17;5.78;;;;;;;19.19;83.92;101582.00;5060623;28;20036;-73
2023/10/10 14:01:18;;;;;;;19.13;5.68;;;;;;;19.23;84.63;101559.94;5041922;28;20024;-73
2023/10/10 14:03:48;;;;;;;18.67;5.68;;;;;;;19.23;83.91;101565.38;5053122;28;20031;-72
2023/10/10 14:06:20;;;;;;;19.88;5.70;;;;;;;19.24;84.40;101561.63;5058019;28;20021;-72
2023/10/10 14:08:49;;;;;;;17.77;6.22;;;;;;;19.28;81.84;101561.16;5042412;28;20115;-73
2023/10/10 14:11:21;;;;;;;18.50;5.68;;;;;;;19.32;80.32;101559.00;5052387;28;20036;-72
2023/10/10 14:13:51;;;;;;;18.52;5.50;;;;;;;19.34;80.49;101557.84;5058871;28;20393;-72
2023/10/10 14:16:17;;;;;;;18.33;5.72;;;;;;;19.41;77.42;101559.97;5056978;28;20025;-72
2023/10/10 14:18:49;;;;;;;21.33;5.90;;;;;;;19.39;79.17;101557.38;5059897;28;20707;-72
2023/10/10 14:21:24;;;;;;;19.77;6.15;;;;;;;19.38;81.54;101555.66;5058931;28;20326;-72
2023/10/10 14:23:50;;;;;;;16.73;5.45;;;;;;;19.37;85.03;101552.09;5059098;28;20045;-72
2023/10/10 14:26:25;;;;;;;16.08;5.07;;;;;;;19.37;78.90;101546.63;5039051;28;20485;-72
2023/10/10 14:28:51;;;;;;;19.42;5.85;;;;;;;19.44;76.70;101556.91;5058127;28;20481;-75
2023/10/10 14:31:23;;;;;;;18.33;5.45;;;;;;;19.47;77.59;101545.72;5061056;28;20050;-76
2023/10/10 14:33:53;;;;;;;17.00;6.13;;;;;;;19.51;76.14;101544.41;5059794;28;20052;-76
2023/10/10 14:36:19;;;;;;;18.52;6.35;;;;;;;19.54;74.64;101530.44;5046611;28;20072;-76
2023/10/10 14:38:45;;;;;;;16.67;5.60;;;;;;;19.56;72.03;101534.75;5050614;28;20993;-75
2023/10/10 14:41:19;;;;;;;19.60;5.90;;;;;;;19.59;74.65;101525.41;5061706;28;20037;-77
2023/10/10 14:43:48;;;;;;;18.48;5.28;;;;;;;19.61;72.23;101525.25;5058340;28;20059;-75
2023/10/10 14:46:21;;;;;;;22.80;6.00;;;;;;;19.66;72.32;101529.19;5036809;28;20112;-76
2023/10/10 14:49:06;;;;;;;16.60;5.88;;;;;;;19.67;73.56;101524.63;5057322;28;20750;-76
2023/10/10 14:51:34;;;;;;;18.27;5.97;;;;;;;19.70;72.81;101522.41;5067400;28;20402;-76
2023/10/10 14:54:06;;;;;;;19.20;6.07;;;;;;;19.70;73.08;101518.84;5053277;28;20029;-78
2023/10/10 14:56:36;;;;;;;16.52;5.30;;;;;;;19.70;74.29;101516.97;5042608;28;20433;-75
2023/10/10 14:59:06;;;;;;;19.80;6.20;;;;;;;19.74;70.12;101515.66;5051439;28;20021;-73
2023/10/10 15:01:36;;;;;;;16.92;5.63;;;;;;;19.74;68.40;101515.66;5052487;28;20028;-75
2023/10/10 15:04:05;;;;;;;;;;;;;;;19.73;76.29;101507.63;5058271;28;20025;-74
2023/10/10 15:06:31;;;;;;;16.35;5.63;;;;;;;19.71;70.72;101507.78;5038370;28;20639;-73
2023/10/10 15:08:56;;;;;;;16.20;5.80;;;;;;;19.71;70.52;101515.13;5040188;28;20032;-74
2023/10/10 15:11:23;;;;;;;18.95;6.03;;;;;;;19.75;68.05;101511.03;5060989;28;20112;-73
2023/10/10 15:13:49;;;;;;;16.92;5.28;;;;;;;19.71;68.33;101507.78;5057292;28;20028;-76
2023/10/10 15:16:15;;;;;;;18.67;5.93;;;;;;;19.70;69.79;101505.22;5027760;28;20029;-76
2023/10/10 15:18:41;;;;;;;17.92;5.75;;;;;;;19.66;72.54;101498.34;5047516;28;20099;-76
2023/10/10 15:21:06;;;;;;;19.40;6.10;;;;;;;19.62;70.57;101500.53;5028648;28;20108;-75
2023/10/10 15:23:31;;;;;;;18.38;4.93;;;;;;;19.59;70.47;101505.44;5049495;28;20024;-75
2023/10/10 15:26:06;;;;;;;15.13;5.10;;;;;;;19.55;70.42;101500.31;5053824;28;20460;-76
2023/10/10 15:28:31;;;;;;;20.23;6.43;;;;;;;19.49;72.14;101498.19;5031086;28;20673;-76
2023/10/10 15:30:57;;;;;;;20.52;5.95;;;;;;;19.45;72.58;101488.63;5047275;28;20037;-74
2023/10/10 15:33:25;;;;;;;22.00;6.32;;;;;;;19.41;72.26;101495.38;5058966;28;20125;-72
2023/10/10 15:35:52;;;;;;;16.35;5.65;;;;;;;19.34;75.06;101492.44;5065174;28;20088;-77
2023/10/10 15:38:18;;;;;;;16.58;5.53;;;;;;;19.28;78.11;101484.00;5063182;28;20024;-76
2023/10/10 15:40:46;;;;;;;15.55;5.10;;;;;;;19.19;74.84;101486.63;5050023;28;20029;-75
2023/10/10 15:43:11;;;;;;;16.95;6.10;;;;;;;19.15;78.51;101482.53;5071870;28;20031;-72
2023/10/10 15:45:47;;;;;;;14.38;5.20;;;;;;;19.08;80.19;101481.41;5074076;28;20064;-73
2023/10/10 15:48:23;;;;;;;19.08;5.55;;;;;;;18.99;81.07;101472.28;5062179;22;20067;-72
2023/10/10 15:50:53;;;;;;;18.38;5.82;;;;;;;18.91;81.92;101480.34;5012052;28;20038;-74
2023/10/10 15:53:28;;;;;;;18.80;5.68;;;;;;;18.85;82.48;101479.06;5003953;28;20042;-74
2023/10/10 15:56:14;;;;;;;17.58;5.63;;;;;;;18.78;84.70;101480.69;5006645;28;20040;-75
2023/10/10 15:58:49;;;;;;;20.15;6.07;;;;;;;18.64;86.95;101471.16;5010652;28;20036;-73
2023/10/10 16:01:21;;;;;;;22.83;7.03;;;;;;;18.52;88.35;101472.34;5007046;28;20080;-74
2023/10/10 16:04:12;;;;;;;19.98;5.70;;;;;;;18.48;87.04;101468.22;5021937;28;20176;-74
2023/10/10 16:06:38;;;;;;;19.08;5.82;;;;;;;18.37;85.30;101469.25;5006832;28;20117;-73
2023/10/10 16:09:14;;;;;;;19.90;5.88;;;;;;;18.31;85.93;101461.69;5008255;28;20036;-75
2023/10/10 16:11:41;;;;;;;14.57;4.95;;;;;;;18.27;84.74;101460.25;5008913;28;20057;-75
2023/10/10 16:14:14;;;;;;;17.75;5.18;;;;;;;18.22;86.00;101458.00;5022955;28;20033;-75
2023/10/10 16:16:45;;;;;;;16.40;5.55;;;;;;;18.17;86.10;101461.16;5002690;28;20068;-74
2023/10/10 16:19:21;;;;;;;16.70;5.45;;;;;;;18.14;86.38;101456.00;5006449;28;20554;-72
2023/10/10 16:21:52;;;;;;;18.20;5.53;;;;;;;18.08;86.94;101461.16;5007317;28;20478;-72
2023/10/10 16:24:18;;;;;;;25.02;5.95;;;;;;;18.04;87.59;101462.47;5008156;28;20022;-74
2023/10/10 16:26:45;;;;;;;20.10;5.72;;;;;;;17.95;88.26;101456.03;5009442;28;20033;-72
2023/10/10 16:29:19;;;;;;;19.33;5.50;;;;;;;17.94;87.17;101460.63;5008995;28;20032;-72
2023/10/10 16:31:44;;;;;;;16.50;4.82;;;;;;;17.90;86.56;101458.34;5011414;28;20034;-72
2023/10/10 16:34:11;;;;;;;17.70;5.53;;;;;;;17.87;85.93;101464.91;5010609;28;20113;-72
2023/10/10 16:36:36;;;;;;;17.10;5.15;;;;;;;17.82;86.31;101459.91;5005701;28;20026;-72
2023/10/10 16:39:04;;;;;;;20.25;6.05;;;;;;;17.79;86.71;101467.50;5003968;28;20042;-73
2023/10/10 16:41:31;;;;;;;16.88;5.05;;;;;;;17.73;86.65;101460.78;5011274;28;20116;-72
2023/10/10 16:43:58;;;;;;;21.17;6.20;;;;;;;17.72;87.71;101456.34;5009667;28;20061;-73
2023/10/10 16:46:25;;;;;;;18.73;6.25;;;;;;;17.65;87.87;101458.75;5010135;28;20018;-73
2023/10/10 16:48:50;;;;;;;18.67;5.60;;;;;;;17.61;86.78;101461.91;5010944;28;20710;-73
2023/10/10 16:51:16;;;;;;;17.83;5.57;;;;;;;17.57;90.26;101463.19;5011015;28;20113;-76
2023/10/10 16:53:43;;;;;;;21.90;6.05;;;;;;;17.50;88.41;101459.34;5007501;28;20025;-75
2023/10/10 16:56:13;;;;;;;20.38;6.03;;;;;;;17.42;89.93;101449.19;4990452;28;20088;-74
2023/10/10 16:58:43;;;;;;;16.85;5.65;;;;;;;17.39;90.00;101446.75;4992842;28;20040;-75
2023/10/10 17:01:13;;;;;;;22.60;6.13;;;;;;;17.32;89.63;101454.63;5011441;28;20041;-74
2023/10/10 17:03:39;;;;;;;21.08;6.22;;;;;;;17.26;90.18;101455.19;4992089;28;20037;-73
2023/10/10 17:06:07;;;;;;;17.60;5.93;;;;;;;17.22;90.47;101454.63;5011611;28;20026;-78
2023/10/10 17:08:33;;;;;;;19.10;6.10;;;;;;;17.15;91.67;101449.91;4992096;28;20113;-75
2023/10/10 17:11:10;;;;;;;20.35;5.50;;;;;;;17.14;92.34;101453.59;5006384;28;20130;-74
2023/10/10 17:13:39;;;;;;;23.23;6.28;;;;;;;17.03;92.50;101441.00;5007657;28;20073;-79
2023/10/10 17:16:07;;;;;;;21.73;6.43;;;;;;;17.01;92.30;101446.56;5011933;28;20322;-77
2023/10/10 17:18:32;;;;;;;23.60;5.72;;;;;;;16.97;92.86;101438.84;4993135;28;20034;-75
2023/10/10 17:21:00;;;;;;;23.35;6.13;;;;;;;16.92;91.70;101436.56;5009109;28;20034;-73
2023/10/10 17:23:26;;;;;;;19.40;5.57;;;;;;;16.88;92.23;101437.81;4996368;28;20022;-73
2023/10/10 17:25:51;;;;;;;22.13;6.03;;;;;;;16.82;93.26;101438.34;5010706;28;20029;-73
2023/10/10 17:28:16;;;;;;;21.15;5.85;;;;;;;16.78;94.17;101441.34;5007178;28;20076;-73
2023/10/10 17:30:46;;;;;;;20.60;6.22;;;;;;;16.72;93.25;101441.91;5007918;28;20022;-73
2023/10/10 17:33:12;;;;;;;17.48;6.20;;;;;;;16.66;93.65;101430.75;5009445;28;20057;-73
2023/10/10 17:35:40;;;;;;;21.73;6.15;;;;;;;16.62;94.04;101435.59;5005052;28;20623;-73
2023/10/10 17:38:05;;;;;;;19.27;6.00;;;;;;;16.59;95.02;101428.59;4990394;28;20030;-73
2023/10/10 17:40:34;;;;;;;22.95;6.20;;;;;;;16.55;94.81;101427.13;5007530;28;20442;-73
2023/10/10 17:42:59;;;;;;;18.43;5.70;;;;;;;16.53;94.50;101423.72;5008857;28;20041;-73
2023/10/10 17:45:24;;;;;;;20.23;6.43;;;;;;;16.49;94.42;101424.13;4994520;28;20063;-73
2023/10/10 17:47:50;;;;;;;20.17;5.07;;;;;;;16.47;94.35;101418.84;5009400;28;20044;-73
2023/10/10 17:50:16;;;;;;;19.83;6.47;;;;;;;16.45;94.60;101422.69;5009599;28;20621;-73
2023/10/10 17:52:42;;;;;;;18.60;5.88;;;;;;;16.40;93.99;101426.66;4991689;28;20113;-73
2023/10/10 17:55:09;;;;;;;23.30;6.63;;;;;;;16.39;94.59;101422.22;5009031;28;20103;-73
2023/10/10 17:57:34;;;;;;;20.20;5.35;;;;;;;16.38;95.15;101415.09;4989212;28;20017;-73
2023/10/10 17:59:59;;;;;;;23.75;6.38;;;;;;;16.35;94.31;101418.06;4991311;28;20107;-71
2023/10/10 18:02:24;;;;;;;19.23;5.55;;;;;;;16.34;93.45;101424.50;5009375;28;20049;-72
2023/10/10 18:04:50;;;;;;;17.58;5.13;;;;;;;16.35;93.45;101415.34;5008544;28;20037;-71
2023/10/10 18:07:21;;;;;;;19.30;6.13;;;;;;;16.36;91.32;101427.91;4988505;28;20087;-71
2023/10/10 18:09:53;;;;;;;17.70;5.53;;;;;;;16.38;93.66;101416.94;4994484;28;20514;-71
2023/10/10 18:12:19;;;;;;;20.80;6.28;;;;;;;16.38;92.20;101416.94;5007785;28;20030;-71
2023/10/10 18:14:45;;;;;;;19.38;6.05;;;;;;;16.38;92.37;101408.78;5009020;28;20109;-71
2023/10/10 18:17:10;;;;;;;17.02;5.07;;;;;;;16.38;93.10;101417.81;5000875;28;20018;-71
2023/10/10 18:19:40;;;;;;;18.55;5.97;;;;;;;16.38;92.72;101409.66;5003789;28;20033;-72
2023/10/10 18:22:05;;;;;;;19.33;6.10;;;;;;;16.39;93.28;101405.94;5006166;28;20298;-71
2023/10/10 18:24:32;;;;;;;17.98;5.57;;;;;;;16.37;92.38;101407.06;4990503;28;20057;-72
2023/10/10 18:26:57;;;;;;;19.08;5.60;;;;;;;16.36;91.63;101402.66;4991508;28;20088;-71
2023/10/10 18:29:23;;;;;;;17.25;5.35;;;;;;;16.36;91.23;101403.50;5002531;28;20034;-71
2023/10/10 18:31:48;;;;;;;14.05;5.28;;;;;;;16.37;90.83;101405.22;5004787;28;20056;-73
2023/10/10 18:34:13;;;;;;;20.52;5.35;;;;;;;16.37;92.40;101394.38;5002867;28;20092;-71
2023/10/10 18:36:42;;;;;;;16.17;5.15;;;;;;;16.36;92.56;101392.66;5006870;28;20493;-72
2023/10/10 18:39:15;;;;;;;19.63;5.75;;;;;;;16.37;91.81;101391.66;5005914;28;20038;-71
2023/10/10 18:41:41;;;;;;;19.10;5.25;;;;;;;16.37;92.66;101393.50;4990481;28;20022;-71
2023/10/10 18:44:07;;;;;;;17.92;5.97;;;;;;;16.38;92.85;101398.81;4990197;28;20087;-71
2023/10/10 18:46:34;;;;;;;18.88;5.78;;;;;;;16.40;91.51;101395.97;5009247;28;20017;-71
2023/10/10 18:49:00;;;;;;;21.02;6.15;;;;;;;16.42;92.09;101394.81;5000683;28;20060;-73
2023/10/10 18:51:25;;;;;;;18.40;5.00;;;;;;;16.43;91.33;101399.25;5008906;28;20053;-72
2023/10/10 18:53:51;;;;;;;22.65;6.13;;;;;;;16.45;91.57;101398.25;5004617;28;20080;-71
2023/10/10 18:56:18;;;;;;;19.58;4.95;;;;;;;16.47;91.50;101399.84;5007001;28;20041;-71
2023/10/10 18:58:47;;;;;;;21.02;5.43;;;;;;;16.49;91.51;101399.72;4988644;28;20108;-72
2023/10/10 19:01:14;;;;;;;;;;;;;;;16.55;92.08;101397.28;5007895;28;20095;-72
2023/10/10 19:03:46;;;;;;;16.38;5.10;;;;;;;16.57;90.23;101392.59;4987159;28;19913;-73
2023/10/10 19:06:17;;;;;;;19.48;5.65;;;;;;;16.58;90.43;101385.31;5004967;28;20053;-71
2023/10/10 19:08:44;;;;;;;15.23;5.07;;;;;;;16.60;90.40;101386.00;4990278;28;20139;-71
2023/10/10 19:11:11;;;;;;;17.30;5.05;;;;;;;16.63;90.24;101380.31;5007053;28;20029;-74